createdAt,value
2023-04-28T00:11:22.010Z,3.14
2023-04-28T00:26:38.961Z,3.05
2023-04-28T00:41:41.627Z,2.97
2023-04-28T00:56:44.228Z,2.84
2023-04-28T01:11:46.797Z,2.73
2023-04-28T01:27:03.715Z,2.59
2023-04-28T01:42:20.800Z,2.46
2023-04-28T01:57:23.169Z,2.29
2023-04-28T02:12:25.554Z,2.10
2023-04-28T02:27:28.150Z,1.96
2023-04-28T02:42:30.629Z,1.88
2023-04-28T02:57:33.181Z,1.79
2023-04-28T03:12:50.340Z,1.70
2023-04-28T03:28:07.839Z,1.67
2023-04-28T03:43:10.549Z,1.59
2023-04-28T03:58:13.218Z,1.61
2023-04-28T04:13:15.851Z,1.93
2023-04-28T04:28:18.301Z,2.53
2023-04-28T04:43:20.860Z,3.11
2023-04-28T04:58:23.497Z,3.79
2023-04-28T05:13:25.878Z,4.07
2023-04-28T05:28:28.568Z,4.32
2023-04-28T05:43:30.996Z,4.72
2023-04-28T05:58:34.157Z,5.37
2023-04-28T06:13:36.758Z,6.14
2023-04-28T06:28:40.219Z,7.02
2023-04-28T06:43:43.558Z,7.89
2023-04-28T06:58:46.847Z,8.93
2023-04-28T07:14:04.000Z,9.99
2023-04-28T07:29:09.168Z,10.76
2023-04-28T07:44:12.092Z,11.38
2023-04-28T07:59:14.969Z,12.02
2023-04-28T08:14:18.070Z,12.14
2023-04-28T08:29:23.091Z,12.60
2023-04-28T08:44:25.922Z,12.92
2023-04-28T08:59:29.040Z,13.06
2023-04-28T09:14:58.897Z,13.25
2023-04-28T09:30:03.861Z,13.60
2023-04-28T09:45:10.284Z,13.85
2023-04-28T10:00:14.431Z,13.97
2023-04-28T10:15:16.890Z,14.25
2023-04-28T10:30:28.019Z,14.50
2023-04-28T10:45:57.545Z,14.77
2023-04-28T11:01:30.326Z,14.88
2023-04-28T11:16:59.483Z,15.05
2023-04-28T11:32:08.565Z,15.41
2023-04-28T11:47:11.309Z,15.75
2023-04-28T12:02:14.565Z,15.89
2023-04-28T12:17:30.655Z,16.15
2023-04-28T12:32:44.736Z,16.41
2023-04-28T12:48:02.079Z,16.34
2023-04-28T13:03:05.059Z,16.55
2023-04-28T13:18:08.206Z,16.86
2023-04-28T13:33:16.082Z,17.12
2023-04-28T13:48:37.815Z,17.49
2023-04-28T14:03:41.049Z,18.02
2023-04-28T14:18:59.111Z,18.00
2023-04-28T14:34:03.568Z,17.80
2023-04-28T14:49:06.459Z,18.08
2023-04-28T15:04:12.364Z,18.18
2023-04-28T15:19:15.143Z,18.16
2023-04-28T15:34:18.185Z,17.96
2023-04-28T15:49:23.081Z,17.64
2023-04-28T16:04:40.549Z,17.30
2023-04-28T16:19:57.899Z,17.02
2023-04-28T16:35:01.285Z,16.80
2023-04-28T16:50:04.094Z,16.54
2023-04-28T17:05:07.978Z,16.26
2023-04-28T17:20:16.061Z,15.92
2023-04-28T17:35:19.536Z,15.52
2023-04-28T17:50:21.997Z,15.12
2023-04-28T18:05:26.148Z,14.70
2023-04-28T18:20:28.866Z,14.28
2023-04-28T18:35:32.091Z,13.94
2023-04-28T18:50:36.134Z,13.71
2023-04-28T19:05:46.507Z,13.25
2023-04-28T19:20:51.867Z,12.94
2023-04-28T19:35:54.938Z,12.86
2023-04-28T19:51:14.067Z,12.74
2023-04-28T20:06:17.473Z,12.59
2023-04-28T20:21:20.391Z,12.42
2023-04-28T20:36:24.070Z,12.31
2023-04-28T20:51:29.324Z,12.20
2023-04-28T21:06:32.007Z,12.06
2023-04-28T21:21:34.681Z,11.91
2023-04-28T21:36:52.408Z,11.71
2023-04-28T21:51:55.091Z,11.52
2023-04-28T22:06:58.814Z,11.32
2023-04-28T22:22:01.997Z,11.19
2023-04-28T22:37:05.277Z,11.07
2023-04-28T22:52:23.180Z,10.98
2023-04-28T23:07:25.953Z,10.90
2023-04-28T23:22:28.873Z,10.79
2023-04-28T23:37:31.735Z,10.71
2023-04-28T23:52:34.359Z,10.59
